• Join FlightAware (Why Join?)
  • Login
  • US Flag 
02:55PM EST


 

Airport Tracker/Info


-or-


 

Live Flight TrackerFlight Track Log ✈ RAX81 ✈ 20-May-2013 ✈ KTEB - KBOS

Flight Track Log - Related Links

Times and Time Zones

All times are in EDT time to prevent confusion due to time zone crossing. See the RAX81 flight status page for this flight to view local times or setup timezone preferences in your user account.

Time Position Orientation Groundspeed Altitude Reporting Facility
EDT Latitude Longitude Course Direction KTS MPH feet Rate Location/Type
05:58AM 40.9572 -74.0478 352° North 169 194 3,900  Level Boston Center
05:59AM 40.9989 -74.0406 North 151 174 5,600 1,680 Climbing Boston Center
06:00AM 41.0331 -73.9892 49° Northeast 157 181 7,300 1,500 Climbing Boston Center
06:01AM 41.0608 -73.9431 51° Northeast 171 197 8,600 1,380 Climbing Boston Center
06:02AM 41.0906 -73.8886 54° Northeast 176 203 10,100 1,320 Climbing Boston Center
06:03AM 41.1142 -73.8425 56° Northeast 171 197 11,300 1,200 Climbing Boston Center
06:04AM 41.1419 -73.7825 58° Northeast 171 197 12,500 1,080 Climbing Boston Center
06:05AM 41.1550 -73.7275 72° East 166 191 13,500 1,080 Climbing Boston Center
06:06AM 41.1706 -73.6589 73° East 166 191 14,700 780 Climbing Boston Center
06:07AM 41.1836 -73.6011 73° East 174 200 15,100 120 Climbing Boston Center
06:08AM 41.2031 -73.5161 73° East 200 230 15,000 -60 Descending Boston Center
06:09AM 41.2206 -73.4417 73° East 226 260 15,000  Level Boston Center
06:10AM 41.2422 -73.3483 73° East 233 268 15,000  Level Boston Center
06:11AM 41.2636 -73.2686 70° East 233 268 15,000  Level Boston Center
06:12AM 41.2850 -73.1803 72° East 233 268 15,000 -60 Level Boston Center
06:13AM 41.3064 -73.1006 70° East 233 268 14,900 -60 Descending Boston Center
06:14AM 41.3278 -73.0067 73° East 239 275 14,900  Level Boston Center
06:15AM 41.3489 -72.9211 72° East 239 275 14,900  Level Boston Center
06:16AM 41.3703 -72.8356 72° East 239 275 14,900  Level Boston Center
06:17AM 41.3914 -72.7472 72° East 239 275 14,900  Level Boston Center
06:18AM 41.4081 -72.6781 72° East 239 275 14,900  Level Boston Center
06:19AM 41.4311 -72.5758 73° East 239 275 14,900  Level Boston Center
06:20AM 41.4522 -72.4872 72° East 239 275 14,900  Level Boston Center
06:21AM 41.4731 -72.4014 72° East 239 275 14,900  Level Boston Center
06:22AM 41.4939 -72.3153 72° East 239 275 14,900  Level Boston Center
06:23AM 41.5186 -72.2267 70° East 253 291 14,900  Level Boston Center
06:24AM 41.5350 -72.1378 76° East 247 284 14,900  Level Boston Center
06:25AM 41.5514 -72.0489 76° East 242 278 14,900 -120 Level Boston Center
06:26AM 41.5678 -71.9739 74° East 249 287 14,700 -540 Descending Boston Center
06:26AM 41.5906 -71.9433 45° Northeast 254 292 14,200 -1,260 Descending Boston Center
06:27AM 41.6281 -71.8986 42° Northeast 242 278 13,300 -1,500 Descending Boston Center
06:27AM 41.6489 -71.8817 31° Northeast 266 306 12,700 -1,440 Descending Boston Center
06:28AM 41.6903 -71.8342 41° Northeast 269 310 11,900 -1,140 Descending Boston Center
06:28AM 41.7150 -71.8117 34° Northeast 277 319 11,600 -840 Descending Boston Center
06:29AM 41.7461 -71.7639 49° Northeast 269 310 11,100 -840 Descending Boston Center
06:29AM 41.7647 -71.7386 45° Northeast 270 311 10,800 -720 Descending Boston Center
06:30AM 41.7978 -71.6939 45° Northeast 264 304 10,400 -600 Descending Boston Center
06:30AM 41.8206 -71.6714 36° Northeast 264 304 10,200 -600 Descending Boston Center
06:31AM 41.8514 -71.6319 44° Northeast 259 298 9,700 -1,020 Descending Boston Center
06:32AM 41.9133 -71.5558 42° Northeast 266 306 8,400 -780 Descending Boston Center
06:35AM 42.0667 -71.3667 42° Northeast 252 290 7,000 -540 Descending KA90
06:35AM 42.1000 -71.3333 37° Northeast 251 289 6,600 -900 Descending KA90
06:36AM 42.1500 -71.2667 45° Northeast 264 304 5,500 -840 Descending KA90
06:37AM 42.2000 -71.1833 51° Northeast 264 304 5,000 -240 Descending KA90
06:38AM 42.2667 -71.1333 29° Northeast 230 265 5,000  Level KA90
06:39AM 42.3167 -71.1000 26° Northeast 223 257 5,000  Level KA90
06:41AM 42.3833 -71.1000 360° North 221 254 5,000  Level KA90
06:42AM 42.4500 -71.0833 10° North 227 261 5,000 -600 Level KA90
06:43AM 42.5167 -71.0500 20° North 248 285 3,900 -1,080 Descending KA90
06:44AM 42.5667 -71.0000 36° Northeast 258 297 2,900 -480 Descending KA90
06:45AM 42.5500 -70.9167 105° East 213 245 3,000 -300 Climbing KA90
06:45AM 42.5167 -70.9000 160° South 171 197 2,400 -540 Descending KA90
06:47AM 42.4833 -70.9500 228° Southwest 163 188 2,000 -360 Descending KA90
06:48AM 42.4500 -70.9667 200° South 165 190 1,700 -660 Descending KA90
06:49AM 42.4000 -70.9833 194° South 138 159 700 -1,020 Descending KA90
06:51AM 42.3630 -71.0064 180° South  Level Estimated
06:58AM 42.3630 -71.0064 180° South  Level Estimated